sensor_id;sensor_type;location;lat;lon;timestamp;P1;durP1;ratioP1;P2;durP2;ratioP2
10633;SDS011;5365;51.640;8.106;2023-08-31T00:01:30;10.27;;;5.17;;
10633;SDS011;5365;51.640;8.106;2023-08-31T00:04:30;10.07;;;4.37;;
10633;SDS011;5365;51.640;8.106;2023-08-31T00:07:30;9.00;;;4.40;;
10633;SDS011;5365;51.640;8.106;2023-08-31T00:10:30;8.60;;;4.67;;
10633;SDS011;5365;51.640;8.106;2023-08-31T00:13:31;8.63;;;3.87;;
10633;SDS011;5365;51.640;8.106;2023-08-31T00:16:31;12.47;;;4.97;;
10633;SDS011;5365;51.640;8.106;2023-08-31T00:19:33;5.10;;;3.08;;
10633;SDS011;5365;51.640;8.106;2023-08-31T00:22:34;7.38;;;4.32;;
10633;SDS011;5365;51.640;8.106;2023-08-31T00:25:34;8.80;;;4.23;;
10633;SDS011;5365;51.640;8.106;2023-08-31T00:28:34;6.60;;;3.93;;
10633;SDS011;5365;51.640;8.106;2023-08-31T00:31:34;7.33;;;3.57;;
10633;SDS011;5365;51.640;8.106;2023-08-31T00:34:35;6.50;;;3.03;;
10633;SDS011;5365;51.640;8.106;2023-08-31T00:37:35;9.20;;;4.27;;
10633;SDS011;5365;51.640;8.106;2023-08-31T00:40:38;6.33;;;3.60;;
10633;SDS011;5365;51.640;8.106;2023-08-31T00:43:41;6.13;;;3.00;;
10633;SDS011;5365;51.640;8.106;2023-08-31T00:46:42;8.13;;;4.50;;
10633;SDS011;5365;51.640;8.106;2023-08-31T00:49:43;5.30;;;3.00;;
10633;SDS011;5365;51.640;8.106;2023-08-31T00:52:43;9.20;;;3.63;;
10633;SDS011;5365;51.640;8.106;2023-08-31T00:55:47;8.30;;;4.38;;
10633;SDS011;5365;51.640;8.106;2023-08-31T00:58:47;6.70;;;4.45;;
10633;SDS011;5365;51.640;8.106;2023-08-31T01:02:05;7.27;;;3.77;;
10633;SDS011;5365;51.640;8.106;2023-08-31T01:05:16;9.45;;;5.45;;
10633;SDS011;5365;51.640;8.106;2023-08-31T01:14:56;5.60;;;3.03;;
10633;SDS011;5365;51.640;8.106;2023-08-31T01:17:59;9.45;;;4.70;;
10633;SDS011;5365;51.640;8.106;2023-08-31T01:21:02;13.27;;;5.15;;
10633;SDS011;5365;51.640;8.106;2023-08-31T01:24:05;14.98;;;4.65;;
10633;SDS011;5365;51.640;8.106;2023-08-31T01:27:05;9.77;;;4.15;;
10633;SDS011;5365;51.640;8.106;2023-08-31T01:30:06;11.85;;;4.47;;
10633;SDS011;5365;51.640;8.106;2023-08-31T01:33:06;10.67;;;3.90;;
10633;SDS011;5365;51.640;8.106;2023-08-31T01:36:28;10.83;;;4.10;;
10633;SDS011;5365;51.640;8.106;2023-08-31T01:39:29;7.90;;;3.70;;
10633;SDS011;5365;51.640;8.106;2023-08-31T01:42:33;6.05;;;3.22;;
10633;SDS011;5365;51.640;8.106;2023-08-31T01:45:33;7.75;;;3.85;;
10633;SDS011;5365;51.640;8.106;2023-08-31T01:48:40;9.73;;;3.53;;
10633;SDS011;5365;51.640;8.106;2023-08-31T01:51:41;11.60;;;3.17;;
10633;SDS011;5365;51.640;8.106;2023-08-31T01:54:41;7.70;;;3.38;;
10633;SDS011;5365;51.640;8.106;2023-08-31T01:57:41;6.77;;;3.13;;
10633;SDS011;5365;51.640;8.106;2023-08-31T02:00:41;8.37;;;4.00;;
10633;SDS011;5365;51.640;8.106;2023-08-31T02:03:42;5.27;;;2.80;;
10633;SDS011;5365;51.640;8.106;2023-08-31T02:06:42;9.93;;;2.70;;
10633;SDS011;5365;51.640;8.106;2023-08-31T02:09:42;4.37;;;2.33;;
10633;SDS011;5365;51.640;8.106;2023-08-31T02:12:42;9.83;;;3.20;;
10633;SDS011;5365;51.640;8.106;2023-08-31T02:15:42;4.07;;;2.17;;
10633;SDS011;5365;51.640;8.106;2023-08-31T02:18:43;5.70;;;3.03;;
10633;SDS011;5365;51.640;8.106;2023-08-31T02:21:43;4.90;;;2.40;;
10633;SDS011;5365;51.640;8.106;2023-08-31T02:24:44;5.43;;;2.13;;
10633;SDS011;5365;51.640;8.106;2023-08-31T02:27:44;7.72;;;2.17;;
10633;SDS011;5365;51.640;8.106;2023-08-31T02:30:45;5.20;;;2.60;;
10633;SDS011;5365;51.640;8.106;2023-08-31T02:33:46;4.90;;;2.10;;
10633;SDS011;5365;51.640;8.106;2023-08-31T02:36:46;5.90;;;2.35;;
10633;SDS011;5365;51.640;8.106;2023-08-31T02:39:46;5.23;;;2.87;;
10633;SDS011;5365;51.640;8.106;2023-08-31T02:42:50;4.00;;;2.63;;
10633;SDS011;5365;51.640;8.106;2023-08-31T02:45:50;4.28;;;1.63;;
10633;SDS011;5365;51.640;8.106;2023-08-31T02:48:50;4.85;;;1.90;;
10633;SDS011;5365;51.640;8.106;2023-08-31T02:51:50;4.63;;;1.77;;
10633;SDS011;5365;51.640;8.106;2023-08-31T02:54:51;12.05;;;3.20;;
10633;SDS011;5365;51.640;8.106;2023-08-31T02:57:51;3.20;;;1.40;;
10633;SDS011;5365;51.640;8.106;2023-08-31T03:00:51;3.75;;;1.85;;
10633;SDS011;5365;51.640;8.106;2023-08-31T03:03:51;3.63;;;1.83;;
10633;SDS011;5365;51.640;8.106;2023-08-31T03:06:52;4.60;;;2.70;;
10633;SDS011;5365;51.640;8.106;2023-08-31T03:09:52;4.07;;;2.40;;
10633;SDS011;5365;51.640;8.106;2023-08-31T03:12:52;3.27;;;2.00;;
10633;SDS011;5365;51.640;8.106;2023-08-31T03:15:52;2.73;;;1.80;;
10633;SDS011;5365;51.640;8.106;2023-08-31T03:18:52;5.43;;;2.10;;
10633;SDS011;5365;51.640;8.106;2023-08-31T03:21:53;5.60;;;2.00;;
10633;SDS011;5365;51.640;8.106;2023-08-31T03:24:53;4.77;;;2.57;;
10633;SDS011;5365;51.640;8.106;2023-08-31T03:27:53;5.83;;;3.30;;
10633;SDS011;5365;51.640;8.106;2023-08-31T03:30:54;8.70;;;3.15;;
10633;SDS011;5365;51.640;8.106;2023-08-31T03:33:54;6.07;;;2.55;;
10633;SDS011;5365;51.640;8.106;2023-08-31T03:36:55;5.00;;;2.80;;
10633;SDS011;5365;51.640;8.106;2023-08-31T03:39:55;4.67;;;2.43;;
10633;SDS011;5365;51.640;8.106;2023-08-31T03:42:55;8.55;;;2.47;;
10633;SDS011;5365;51.640;8.106;2023-08-31T03:45:56;4.97;;;3.10;;
10633;SDS011;5365;51.640;8.106;2023-08-31T03:48:56;4.53;;;2.40;;
10633;SDS011;5365;51.640;8.106;2023-08-31T03:51:57;4.70;;;2.80;;
10633;SDS011;5365;51.640;8.106;2023-08-31T03:54:57;5.53;;;2.35;;
10633;SDS011;5365;51.640;8.106;2023-08-31T03:57:57;9.77;;;2.97;;
10633;SDS011;5365;51.640;8.106;2023-08-31T04:00:58;6.47;;;3.22;;
10633;SDS011;5365;51.640;8.106;2023-08-31T04:03:58;7.30;;;3.65;;
10633;SDS011;5365;51.640;8.106;2023-08-31T04:06:58;5.60;;;2.77;;
10633;SDS011;5365;51.640;8.106;2023-08-31T04:09:58;4.37;;;2.40;;
10633;SDS011;5365;51.640;8.106;2023-08-31T04:12:59;8.00;;;2.85;;
10633;SDS011;5365;51.640;8.106;2023-08-31T04:16:00;6.40;;;3.47;;
10633;SDS011;5365;51.640;8.106;2023-08-31T04:19:00;6.03;;;3.10;;
10633;SDS011;5365;51.640;8.106;2023-08-31T04:22:00;3.03;;;2.03;;
10633;SDS011;5365;51.640;8.106;2023-08-31T04:25:00;6.00;;;2.90;;
10633;SDS011;5365;51.640;8.106;2023-08-31T04:28:00;8.40;;;3.70;;
10633;SDS011;5365;51.640;8.106;2023-08-31T04:31:08;5.87;;;2.77;;
10633;SDS011;5365;51.640;8.106;2023-08-31T04:34:17;6.97;;;3.60;;
10633;SDS011;5365;51.640;8.106;2023-08-31T04:37:17;8.17;;;4.20;;
10633;SDS011;5365;51.640;8.106;2023-08-31T04:40:18;9.60;;;4.60;;
10633;SDS011;5365;51.640;8.106;2023-08-31T04:43:18;7.63;;;3.93;;
10633;SDS011;5365;51.640;8.106;2023-08-31T04:46:18;12.80;;;4.37;;
10633;SDS011;5365;51.640;8.106;2023-08-31T04:49:18;9.23;;;4.70;;
10633;SDS011;5365;51.640;8.106;2023-08-31T04:52:19;6.07;;;3.47;;
10633;SDS011;5365;51.640;8.106;2023-08-31T04:55:20;10.60;;;4.30;;
10633;SDS011;5365;51.640;8.106;2023-08-31T04:58:21;8.77;;;3.70;;
10633;SDS011;5365;51.640;8.106;2023-08-31T05:01:21;16.17;;;6.30;;
10633;SDS011;5365;51.640;8.106;2023-08-31T05:04:21;9.70;;;4.23;;
10633;SDS011;5365;51.640;8.106;2023-08-31T05:07:23;7.40;;;3.03;;
10633;SDS011;5365;51.640;8.106;2023-08-31T05:10:23;9.00;;;4.47;;
10633;SDS011;5365;51.640;8.106;2023-08-31T05:13:23;7.23;;;3.97;;
10633;SDS011;5365;51.640;8.106;2023-08-31T05:16:24;7.70;;;3.20;;
10633;SDS011;5365;51.640;8.106;2023-08-31T05:19:24;7.67;;;4.43;;
10633;SDS011;5365;51.640;8.106;2023-08-31T05:22:24;6.57;;;3.83;;
10633;SDS011;5365;51.640;8.106;2023-08-31T05:25:24;8.20;;;4.13;;
10633;SDS011;5365;51.640;8.106;2023-08-31T05:28:25;6.07;;;2.87;;
10633;SDS011;5365;51.640;8.106;2023-08-31T05:31:25;8.60;;;4.13;;
10633;SDS011;5365;51.640;8.106;2023-08-31T05:34:25;8.00;;;4.57;;
10633;SDS011;5365;51.640;8.106;2023-08-31T05:37:26;5.40;;;3.17;;
10633;SDS011;5365;51.640;8.106;2023-08-31T05:40:26;6.73;;;3.90;;
10633;SDS011;5365;51.640;8.106;2023-08-31T05:43:26;8.73;;;3.97;;
10633;SDS011;5365;51.640;8.106;2023-08-31T05:46:26;11.63;;;4.67;;
10633;SDS011;5365;51.640;8.106;2023-08-31T05:49:27;11.48;;;5.60;;
10633;SDS011;5365;51.640;8.106;2023-08-31T05:52:27;11.70;;;5.53;;
10633;SDS011;5365;51.640;8.106;2023-08-31T05:55:27;9.18;;;4.55;;
10633;SDS011;5365;51.640;8.106;2023-08-31T05:58:27;11.97;;;5.27;;
10633;SDS011;5365;51.640;8.106;2023-08-31T06:01:28;8.80;;;4.43;;
10633;SDS011;5365;51.640;8.106;2023-08-31T06:04:28;12.90;;;5.20;;
10633;SDS011;5365;51.640;8.106;2023-08-31T06:07:28;12.88;;;4.75;;
10633;SDS011;5365;51.640;8.106;2023-08-31T06:10:29;8.30;;;4.57;;
10633;SDS011;5365;51.640;8.106;2023-08-31T06:13:29;8.33;;;4.93;;
10633;SDS011;5365;51.640;8.106;2023-08-31T06:16:29;9.15;;;3.58;;
10633;SDS011;5365;51.640;8.106;2023-08-31T06:19:29;8.40;;;4.40;;
10633;SDS011;5365;51.640;8.106;2023-08-31T06:22:29;6.87;;;3.40;;
10633;SDS011;5365;51.640;8.106;2023-08-31T06:25:30;6.40;;;2.97;;
10633;SDS011;5365;51.640;8.106;2023-08-31T06:28:30;6.19;;;2.34;;
10633;SDS011;5365;51.640;8.106;2023-08-31T06:31:30;7.30;;;3.43;;
10633;SDS011;5365;51.640;8.106;2023-08-31T06:34:30;5.73;;;3.27;;
10633;SDS011;5365;51.640;8.106;2023-08-31T06:37:31;9.07;;;3.43;;
10633;SDS011;5365;51.640;8.106;2023-08-31T06:40:31;7.15;;;4.10;;
10633;SDS011;5365;51.640;8.106;2023-08-31T06:43:31;7.43;;;2.57;;
10633;SDS011;5365;51.640;8.106;2023-08-31T06:46:32;6.50;;;3.77;;
10633;SDS011;5365;51.640;8.106;2023-08-31T06:49:37;8.80;;;4.18;;
10633;SDS011;5365;51.640;8.106;2023-08-31T06:52:37;8.70;;;5.43;;
10633;SDS011;5365;51.640;8.106;2023-08-31T06:55:38;7.70;;;3.37;;
10633;SDS011;5365;51.640;8.106;2023-08-31T06:58:38;6.63;;;4.10;;
10633;SDS011;5365;51.640;8.106;2023-08-31T07:01:38;7.83;;;3.53;;
10633;SDS011;5365;51.640;8.106;2023-08-31T07:04:38;6.60;;;3.30;;
10633;SDS011;5365;51.640;8.106;2023-08-31T07:07:38;6.82;;;3.08;;
10633;SDS011;5365;51.640;8.106;2023-08-31T07:10:39;5.63;;;3.27;;
10633;SDS011;5365;51.640;8.106;2023-08-31T07:13:39;8.40;;;3.40;;
10633;SDS011;5365;51.640;8.106;2023-08-31T07:16:39;7.43;;;4.07;;
10633;SDS011;5365;51.640;8.106;2023-08-31T07:19:39;8.63;;;4.57;;
10633;SDS011;5365;51.640;8.106;2023-08-31T07:22:40;9.70;;;4.33;;
10633;SDS011;5365;51.640;8.106;2023-08-31T07:25:40;6.45;;;3.30;;
10633;SDS011;5365;51.640;8.106;2023-08-31T07:28:42;6.22;;;2.90;;
10633;SDS011;5365;51.640;8.106;2023-08-31T07:31:42;4.93;;;2.40;;
10633;SDS011;5365;51.640;8.106;2023-08-31T07:34:42;8.27;;;2.88;;
10633;SDS011;5365;51.640;8.106;2023-08-31T07:37:42;3.93;;;2.20;;
10633;SDS011;5365;51.640;8.106;2023-08-31T07:40:42;9.10;;;3.33;;
10633;SDS011;5365;51.640;8.106;2023-08-31T07:43:43;5.87;;;2.97;;
10633;SDS011;5365;51.640;8.106;2023-08-31T07:46:43;6.07;;;2.83;;
10633;SDS011;5365;51.640;8.106;2023-08-31T07:49:43;5.40;;;2.97;;
10633;SDS011;5365;51.640;8.106;2023-08-31T07:52:44;4.75;;;3.22;;
10633;SDS011;5365;51.640;8.106;2023-08-31T07:55:51;8.07;;;3.90;;
10633;SDS011;5365;51.640;8.106;2023-08-31T07:58:51;6.53;;;3.05;;
10633;SDS011;5365;51.640;8.106;2023-08-31T08:01:52;8.80;;;3.33;;
10633;SDS011;5365;51.640;8.106;2023-08-31T08:04:52;5.37;;;2.53;;
10633;SDS011;5365;51.640;8.106;2023-08-31T08:07:52;9.47;;;2.77;;
10633;SDS011;5365;51.640;8.106;2023-08-31T08:10:52;7.20;;;3.33;;
10633;SDS011;5365;51.640;8.106;2023-08-31T08:13:53;5.45;;;3.05;;
10633;SDS011;5365;51.640;8.106;2023-08-31T08:16:53;6.67;;;3.53;;
10633;SDS011;5365;51.640;8.106;2023-08-31T08:19:53;7.87;;;3.23;;
10633;SDS011;5365;51.640;8.106;2023-08-31T08:22:53;5.30;;;2.53;;
10633;SDS011;5365;51.640;8.106;2023-08-31T08:25:54;7.53;;;2.00;;
10633;SDS011;5365;51.640;8.106;2023-08-31T08:28:54;6.67;;;1.77;;
10633;SDS011;5365;51.640;8.106;2023-08-31T08:31:54;7.87;;;2.57;;
10633;SDS011;5365;51.640;8.106;2023-08-31T08:34:54;3.17;;;1.77;;
10633;SDS011;5365;51.640;8.106;2023-08-31T08:37:54;4.13;;;1.73;;
10633;SDS011;5365;51.640;8.106;2023-08-31T08:40:55;4.97;;;1.77;;
10633;SDS011;5365;51.640;8.106;2023-08-31T08:43:55;2.50;;;1.07;;
10633;SDS011;5365;51.640;8.106;2023-08-31T08:46:56;1.70;;;0.73;;
10633;SDS011;5365;51.640;8.106;2023-08-31T08:49:57;1.85;;;1.15;;
10633;SDS011;5365;51.640;8.106;2023-08-31T08:52:58;3.63;;;1.30;;
10633;SDS011;5365;51.640;8.106;2023-08-31T08:55:58;3.67;;;1.33;;
10633;SDS011;5365;51.640;8.106;2023-08-31T08:58:58;3.03;;;0.87;;
10633;SDS011;5365;51.640;8.106;2023-08-31T09:01:59;4.53;;;1.05;;
10633;SDS011;5365;51.640;8.106;2023-08-31T09:04:59;2.67;;;1.17;;
10633;SDS011;5365;51.640;8.106;2023-08-31T09:11:02;2.70;;;1.30;;
10633;SDS011;5365;51.640;8.106;2023-08-31T09:14:15;1.93;;;0.77;;
10633;SDS011;5365;51.640;8.106;2023-08-31T09:17:16;2.72;;;1.17;;
10633;SDS011;5365;51.640;8.106;2023-08-31T09:20:16;3.60;;;1.00;;
10633;SDS011;5365;51.640;8.106;2023-08-31T09:23:16;2.40;;;1.13;;
10633;SDS011;5365;51.640;8.106;2023-08-31T09:26:17;3.78;;;1.83;;
10633;SDS011;5365;51.640;8.106;2023-08-31T09:29:17;2.83;;;1.03;;
10633;SDS011;5365;51.640;8.106;2023-08-31T09:32:17;3.17;;;1.40;;
10633;SDS011;5365;51.640;8.106;2023-08-31T09:35:18;1.85;;;0.93;;
10633;SDS011;5365;51.640;8.106;2023-08-31T09:38:18;1.60;;;1.00;;
10633;SDS011;5365;51.640;8.106;2023-08-31T09:41:19;1.40;;;0.63;;
10633;SDS011;5365;51.640;8.106;2023-08-31T09:44:19;4.03;;;0.87;;
10633;SDS011;5365;51.640;8.106;2023-08-31T09:47:19;4.07;;;1.10;;
10633;SDS011;5365;51.640;8.106;2023-08-31T09:50:19;2.27;;;0.93;;
10633;SDS011;5365;51.640;8.106;2023-08-31T09:53:20;1.80;;;0.88;;
10633;SDS011;5365;51.640;8.106;2023-08-31T09:56:21;2.20;;;0.98;;
10633;SDS011;5365;51.640;8.106;2023-08-31T09:59:21;1.55;;;0.52;;
10633;SDS011;5365;51.640;8.106;2023-08-31T10:02:25;4.55;;;0.77;;
10633;SDS011;5365;51.640;8.106;2023-08-31T10:05:25;2.38;;;0.90;;
10633;SDS011;5365;51.640;8.106;2023-08-31T10:08:26;1.83;;;0.60;;
10633;SDS011;5365;51.640;8.106;2023-08-31T10:11:28;5.45;;;0.88;;
10633;SDS011;5365;51.640;8.106;2023-08-31T10:14:28;5.10;;;0.63;;
10633;SDS011;5365;51.640;8.106;2023-08-31T10:17:29;5.30;;;0.60;;
10633;SDS011;5365;51.640;8.106;2023-08-31T10:20:30;1.73;;;0.80;;
10633;SDS011;5365;51.640;8.106;2023-08-31T10:23:31;1.73;;;0.75;;
10633;SDS011;5365;51.640;8.106;2023-08-31T10:26:32;5.35;;;0.82;;
10633;SDS011;5365;51.640;8.106;2023-08-31T10:29:32;1.17;;;0.60;;
10633;SDS011;5365;51.640;8.106;2023-08-31T10:32:33;0.85;;;0.47;;
10633;SDS011;5365;51.640;8.106;2023-08-31T10:35:48;1.10;;;0.70;;
10633;SDS011;5365;51.640;8.106;2023-08-31T10:41:57;2.75;;;1.08;;
10633;SDS011;5365;51.640;8.106;2023-08-31T10:45:06;4.32;;;1.05;;
10633;SDS011;5365;51.640;8.106;2023-08-31T10:48:07;3.30;;;1.57;;
10633;SDS011;5365;51.640;8.106;2023-08-31T10:51:07;1.90;;;1.20;;
10633;SDS011;5365;51.640;8.106;2023-08-31T10:54:11;2.83;;;1.43;;
10633;SDS011;5365;51.640;8.106;2023-08-31T10:57:13;2.92;;;1.55;;
10633;SDS011;5365;51.640;8.106;2023-08-31T11:00:14;2.38;;;1.08;;
10633;SDS011;5365;51.640;8.106;2023-08-31T11:03:56;1.77;;;1.20;;
10633;SDS011;5365;51.640;8.106;2023-08-31T11:10:21;1.52;;;0.93;;
10633;SDS011;5365;51.640;8.106;2023-08-31T11:13:22;2.13;;;1.23;;
10633;SDS011;5365;51.640;8.106;2023-08-31T11:16:23;4.97;;;1.40;;
10633;SDS011;5365;51.640;8.106;2023-08-31T11:19:23;2.77;;;1.57;;
10633;SDS011;5365;51.640;8.106;2023-08-31T11:22:23;3.13;;;1.73;;
10633;SDS011;5365;51.640;8.106;2023-08-31T11:25:24;3.55;;;1.80;;
10633;SDS011;5365;51.640;8.106;2023-08-31T11:28:24;3.53;;;1.80;;
10633;SDS011;5365;51.640;8.106;2023-08-31T11:31:26;3.17;;;1.38;;
10633;SDS011;5365;51.640;8.106;2023-08-31T11:34:26;2.50;;;1.50;;
10633;SDS011;5365;51.640;8.106;2023-08-31T11:37:26;4.03;;;2.03;;
10633;SDS011;5365;51.640;8.106;2023-08-31T11:40:27;3.50;;;2.20;;
10633;SDS011;5365;51.640;8.106;2023-08-31T11:43:27;3.08;;;1.83;;
10633;SDS011;5365;51.640;8.106;2023-08-31T11:46:27;3.20;;;1.40;;
10633;SDS011;5365;51.640;8.106;2023-08-31T11:49:28;1.90;;;1.30;;
10633;SDS011;5365;51.640;8.106;2023-08-31T11:52:28;3.00;;;1.40;;
10633;SDS011;5365;51.640;8.106;2023-08-31T11:55:30;2.22;;;1.50;;
10633;SDS011;5365;51.640;8.106;2023-08-31T11:58:33;2.95;;;1.20;;
10633;SDS011;5365;51.640;8.106;2023-08-31T12:01:39;1.85;;;1.33;;
10633;SDS011;5365;51.640;8.106;2023-08-31T12:04:43;2.67;;;1.73;;
10633;SDS011;5365;51.640;8.106;2023-08-31T12:07:44;4.25;;;1.77;;
10633;SDS011;5365;51.640;8.106;2023-08-31T12:10:45;3.38;;;1.40;;
10633;SDS011;5365;51.640;8.106;2023-08-31T12:13:45;1.20;;;0.73;;
10633;SDS011;5365;51.640;8.106;2023-08-31T12:16:46;3.03;;;1.30;;
10633;SDS011;5365;51.640;8.106;2023-08-31T12:19:46;1.50;;;0.70;;
10633;SDS011;5365;51.640;8.106;2023-08-31T12:22:46;2.43;;;1.00;;
10633;SDS011;5365;51.640;8.106;2023-08-31T12:25:49;1.33;;;0.57;;
10633;SDS011;5365;51.640;8.106;2023-08-31T12:28:50;1.55;;;0.50;;
10633;SDS011;5365;51.640;8.106;2023-08-31T12:31:50;0.90;;;0.33;;
10633;SDS011;5365;51.640;8.106;2023-08-31T12:34:50;0.80;;;0.40;;
10633;SDS011;5365;51.640;8.106;2023-08-31T12:37:50;1.10;;;0.40;;
10633;SDS011;5365;51.640;8.106;2023-08-31T12:40:51;1.50;;;0.40;;
10633;SDS011;5365;51.640;8.106;2023-08-31T12:43:52;2.08;;;0.47;;
10633;SDS011;5365;51.640;8.106;2023-08-31T12:46:52;1.17;;;0.70;;
10633;SDS011;5365;51.640;8.106;2023-08-31T12:49:52;2.25;;;0.47;;
10633;SDS011;5365;51.640;8.106;2023-08-31T12:52:52;1.30;;;0.57;;
10633;SDS011;5365;51.640;8.106;2023-08-31T12:55:53;0.77;;;0.50;;
10633;SDS011;5365;51.640;8.106;2023-08-31T12:58:54;1.67;;;0.50;;
10633;SDS011;5365;51.640;8.106;2023-08-31T13:01:54;0.87;;;0.50;;
10633;SDS011;5365;51.640;8.106;2023-08-31T13:04:54;1.30;;;0.60;;
10633;SDS011;5365;51.640;8.106;2023-08-31T13:07:54;3.10;;;1.13;;
10633;SDS011;5365;51.640;8.106;2023-08-31T13:10:55;1.38;;;0.55;;
10633;SDS011;5365;51.640;8.106;2023-08-31T13:13:55;1.40;;;0.70;;
10633;SDS011;5365;51.640;8.106;2023-08-31T13:16:55;5.63;;;0.70;;
10633;SDS011;5365;51.640;8.106;2023-08-31T13:19:56;4.07;;;1.05;;
10633;SDS011;5365;51.640;8.106;2023-08-31T13:22:57;3.60;;;0.85;;
10633;SDS011;5365;51.640;8.106;2023-08-31T13:25:57;2.67;;;1.00;;
10633;SDS011;5365;51.640;8.106;2023-08-31T13:28:57;4.10;;;1.40;;
10633;SDS011;5365;51.640;8.106;2023-08-31T13:31:57;3.50;;;1.07;;
10633;SDS011;5365;51.640;8.106;2023-08-31T13:34:58;2.30;;;0.63;;
10633;SDS011;5365;51.640;8.106;2023-08-31T13:37:58;2.67;;;0.87;;
10633;SDS011;5365;51.640;8.106;2023-08-31T13:40:58;2.27;;;0.70;;
10633;SDS011;5365;51.640;8.106;2023-08-31T13:43:58;2.60;;;0.80;;
10633;SDS011;5365;51.640;8.106;2023-08-31T13:46:58;1.47;;;0.67;;
10633;SDS011;5365;51.640;8.106;2023-08-31T13:49:59;1.90;;;0.80;;
10633;SDS011;5365;51.640;8.106;2023-08-31T13:52:59;1.53;;;0.70;;
10633;SDS011;5365;51.640;8.106;2023-08-31T13:55:59;3.23;;;0.73;;
10633;SDS011;5365;51.640;8.106;2023-08-31T13:58:59;1.13;;;0.68;;
10633;SDS011;5365;51.640;8.106;2023-08-31T14:02:00;3.23;;;0.73;;
10633;SDS011;5365;51.640;8.106;2023-08-31T14:05:00;2.00;;;0.73;;
10633;SDS011;5365;51.640;8.106;2023-08-31T14:08:00;2.00;;;0.77;;
10633;SDS011;5365;51.640;8.106;2023-08-31T14:11:03;3.25;;;0.80;;
10633;SDS011;5365;51.640;8.106;2023-08-31T14:14:04;1.73;;;0.90;;
10633;SDS011;5365;51.640;8.106;2023-08-31T14:17:14;1.45;;;0.63;;
10633;SDS011;5365;51.640;8.106;2023-08-31T14:20:14;1.70;;;0.63;;
10633;SDS011;5365;51.640;8.106;2023-08-31T14:23:14;2.20;;;0.57;;
10633;SDS011;5365;51.640;8.106;2023-08-31T14:26:15;1.42;;;0.57;;
10633;SDS011;5365;51.640;8.106;2023-08-31T14:29:16;3.77;;;0.80;;
10633;SDS011;5365;51.640;8.106;2023-08-31T14:32:16;3.23;;;0.90;;
10633;SDS011;5365;51.640;8.106;2023-08-31T14:35:17;1.73;;;0.57;;
10633;SDS011;5365;51.640;8.106;2023-08-31T14:38:21;1.05;;;0.40;;
10633;SDS011;5365;51.640;8.106;2023-08-31T14:41:22;1.17;;;0.60;;
10633;SDS011;5365;51.640;8.106;2023-08-31T14:44:22;1.50;;;0.60;;
10633;SDS011;5365;51.640;8.106;2023-08-31T14:47:22;2.15;;;0.95;;
10633;SDS011;5365;51.640;8.106;2023-08-31T14:50:23;2.73;;;0.77;;
10633;SDS011;5365;51.640;8.106;2023-08-31T14:53:23;2.63;;;0.60;;
10633;SDS011;5365;51.640;8.106;2023-08-31T14:56:23;4.00;;;1.00;;
10633;SDS011;5365;51.640;8.106;2023-08-31T14:59:23;2.30;;;0.73;;
10633;SDS011;5365;51.640;8.106;2023-08-31T15:02:24;1.95;;;0.60;;
10633;SDS011;5365;51.640;8.106;2023-08-31T15:05:24;1.23;;;0.85;;
10633;SDS011;5365;51.640;8.106;2023-08-31T15:08:38;3.95;;;1.48;;
10633;SDS011;5365;51.640;8.106;2023-08-31T15:11:38;4.47;;;1.52;;
10633;SDS011;5365;51.640;8.106;2023-08-31T15:14:39;2.13;;;1.02;;
10633;SDS011;5365;51.640;8.106;2023-08-31T15:17:39;4.03;;;1.57;;
10633;SDS011;5365;51.640;8.106;2023-08-31T15:20:39;4.22;;;1.17;;
10633;SDS011;5365;51.640;8.106;2023-08-31T15:23:42;1.52;;;0.85;;
10633;SDS011;5365;51.640;8.106;2023-08-31T15:26:43;5.40;;;1.67;;
10633;SDS011;5365;51.640;8.106;2023-08-31T15:29:43;3.17;;;1.50;;
10633;SDS011;5365;51.640;8.106;2023-08-31T15:32:44;2.00;;;1.10;;
10633;SDS011;5365;51.640;8.106;2023-08-31T15:35:44;3.23;;;1.33;;
10633;SDS011;5365;51.640;8.106;2023-08-31T15:38:45;1.80;;;1.07;;
10633;SDS011;5365;51.640;8.106;2023-08-31T15:41:45;2.67;;;1.17;;
10633;SDS011;5365;51.640;8.106;2023-08-31T15:44:46;2.60;;;1.30;;
10633;SDS011;5365;51.640;8.106;2023-08-31T15:47:46;1.73;;;1.10;;
10633;SDS011;5365;51.640;8.106;2023-08-31T15:50:46;3.13;;;1.67;;
10633;SDS011;5365;51.640;8.106;2023-08-31T15:53:46;2.77;;;1.33;;
10633;SDS011;5365;51.640;8.106;2023-08-31T15:56:46;4.70;;;1.77;;
10633;SDS011;5365;51.640;8.106;2023-08-31T15:59:47;3.03;;;2.07;;
10633;SDS011;5365;51.640;8.106;2023-08-31T16:02:47;3.67;;;2.70;;
10633;SDS011;5365;51.640;8.106;2023-08-31T16:05:48;4.57;;;2.85;;
10633;SDS011;5365;51.640;8.106;2023-08-31T16:08:48;4.03;;;2.60;;
10633;SDS011;5365;51.640;8.106;2023-08-31T16:11:49;7.80;;;3.30;;
10633;SDS011;5365;51.640;8.106;2023-08-31T16:14:49;5.90;;;2.33;;
10633;SDS011;5365;51.640;8.106;2023-08-31T16:17:51;4.50;;;2.40;;
10633;SDS011;5365;51.640;8.106;2023-08-31T16:20:51;6.23;;;2.00;;
10633;SDS011;5365;51.640;8.106;2023-08-31T16:23:51;3.00;;;1.77;;
10633;SDS011;5365;51.640;8.106;2023-08-31T16:26:52;3.23;;;1.70;;
10633;SDS011;5365;51.640;8.106;2023-08-31T16:29:52;3.70;;;1.67;;
10633;SDS011;5365;51.640;8.106;2023-08-31T16:32:53;2.60;;;1.27;;
10633;SDS011;5365;51.640;8.106;2023-08-31T16:35:56;2.35;;;1.20;;
10633;SDS011;5365;51.640;8.106;2023-08-31T16:38:57;4.90;;;1.77;;
10633;SDS011;5365;51.640;8.106;2023-08-31T16:41:57;2.60;;;1.70;;
10633;SDS011;5365;51.640;8.106;2023-08-31T16:44:57;2.57;;;1.70;;
10633;SDS011;5365;51.640;8.106;2023-08-31T16:47:58;2.23;;;1.57;;
10633;SDS011;5365;51.640;8.106;2023-08-31T16:51:13;2.88;;;1.45;;
10633;SDS011;5365;51.640;8.106;2023-08-31T16:54:14;5.13;;;1.80;;
10633;SDS011;5365;51.640;8.106;2023-08-31T16:57:15;3.55;;;1.92;;
10633;SDS011;5365;51.640;8.106;2023-08-31T17:00:16;3.30;;;1.83;;
10633;SDS011;5365;51.640;8.106;2023-08-31T17:03:16;3.90;;;2.77;;
10633;SDS011;5365;51.640;8.106;2023-08-31T17:06:16;2.47;;;1.53;;
10633;SDS011;5365;51.640;8.106;2023-08-31T17:09:16;2.77;;;1.57;;
10633;SDS011;5365;51.640;8.106;2023-08-31T17:12:17;4.00;;;2.30;;
10633;SDS011;5365;51.640;8.106;2023-08-31T17:15:17;3.17;;;1.83;;
10633;SDS011;5365;51.640;8.106;2023-08-31T17:18:18;3.92;;;2.45;;
10633;SDS011;5365;51.640;8.106;2023-08-31T17:21:18;4.47;;;2.30;;
10633;SDS011;5365;51.640;8.106;2023-08-31T17:24:18;5.50;;;2.60;;
10633;SDS011;5365;51.640;8.106;2023-08-31T17:27:19;3.63;;;1.83;;
10633;SDS011;5365;51.640;8.106;2023-08-31T17:30:19;2.45;;;1.73;;
10633;SDS011;5365;51.640;8.106;2023-08-31T17:33:20;3.13;;;2.25;;
10633;SDS011;5365;51.640;8.106;2023-08-31T17:36:21;3.95;;;2.42;;
10633;SDS011;5365;51.640;8.106;2023-08-31T17:39:22;3.65;;;1.80;;
10633;SDS011;5365;51.640;8.106;2023-08-31T17:42:22;4.80;;;2.43;;
10633;SDS011;5365;51.640;8.106;2023-08-31T17:45:23;3.27;;;1.90;;
10633;SDS011;5365;51.640;8.106;2023-08-31T17:48:23;2.33;;;1.50;;
10633;SDS011;5365;51.640;8.106;2023-08-31T17:51:23;4.27;;;1.90;;
10633;SDS011;5365;51.640;8.106;2023-08-31T17:54:23;3.80;;;1.90;;
10633;SDS011;5365;51.640;8.106;2023-08-31T17:57:27;3.80;;;1.63;;
10633;SDS011;5365;51.640;8.106;2023-08-31T18:00:28;2.47;;;1.27;;
10633;SDS011;5365;51.640;8.106;2023-08-31T18:03:29;2.17;;;1.20;;
10633;SDS011;5365;51.640;8.106;2023-08-31T18:06:29;4.53;;;1.63;;
10633;SDS011;5365;51.640;8.106;2023-08-31T18:09:29;2.80;;;1.53;;
10633;SDS011;5365;51.640;8.106;2023-08-31T18:12:36;6.07;;;2.53;;
10633;SDS011;5365;51.640;8.106;2023-08-31T18:15:44;3.20;;;1.75;;
10633;SDS011;5365;51.640;8.106;2023-08-31T18:18:44;3.40;;;1.92;;
10633;SDS011;5365;51.640;8.106;2023-08-31T18:21:45;3.67;;;1.93;;
10633;SDS011;5365;51.640;8.106;2023-08-31T18:24:45;2.60;;;1.60;;
10633;SDS011;5365;51.640;8.106;2023-08-31T18:27:45;2.38;;;1.52;;
10633;SDS011;5365;51.640;8.106;2023-08-31T18:30:52;5.43;;;1.63;;
10633;SDS011;5365;51.640;8.106;2023-08-31T18:33:53;3.78;;;2.08;;
10633;SDS011;5365;51.640;8.106;2023-08-31T18:36:53;2.87;;;1.57;;
10633;SDS011;5365;51.640;8.106;2023-08-31T18:39:55;3.00;;;2.25;;
10633;SDS011;5365;51.640;8.106;2023-08-31T18:42:56;2.43;;;1.37;;